createdAt,value
2017-09-28T00:01:51.761Z,89.20
2017-09-28T00:04:19.213Z,89.10
2017-09-28T00:06:46.666Z,89.20
2017-09-28T00:09:14.110Z,89.30
2017-09-28T00:11:41.566Z,89.10
2017-09-28T00:14:09.018Z,89.20
2017-09-28T00:16:36.477Z,89.10
2017-09-28T00:19:03.941Z,89.20
2017-09-28T00:21:31.417Z,89.20
2017-09-28T00:23:58.870Z,89.20
2017-09-28T00:26:26.341Z,89.30
2017-09-28T00:28:53.794Z,89.40
2017-09-28T00:31:21.242Z,89.60
2017-09-28T00:33:48.694Z,89.70
2017-09-28T00:36:16.138Z,90.00
2017-09-28T00:38:43.591Z,89.70
2017-09-28T00:41:11.055Z,89.10
2017-09-28T00:43:38.506Z,89.00
2017-09-28T00:46:05.954Z,89.20
2017-09-28T00:48:33.418Z,89.30
2017-09-28T00:51:00.873Z,89.20
2017-09-28T00:53:28.339Z,88.90
2017-09-28T00:55:55.812Z,88.90
2017-09-28T00:58:23.263Z,88.70
2017-09-28T01:00:50.709Z,88.70
2017-09-28T01:03:18.175Z,88.40
2017-09-28T01:05:45.671Z,88.50
2017-09-28T01:08:13.945Z,88.40
2017-09-28T01:10:42.163Z,88.90
2017-09-28T01:13:09.609Z,88.50
2017-09-28T01:15:37.062Z,88.70
2017-09-28T01:18:04.522Z,88.50
2017-09-28T01:20:31.979Z,88.40
2017-09-28T01:22:59.438Z,88.10
2017-09-28T01:25:26.896Z,88.20
2017-09-28T01:27:54.360Z,88.30
2017-09-28T01:30:21.824Z,88.40
2017-09-28T01:32:49.287Z,88.40
2017-09-28T01:35:16.739Z,88.40
2017-09-28T01:37:44.189Z,88.40
2017-09-28T01:40:12.416Z,88.50
2017-09-28T01:42:39.863Z,88.50
2017-09-28T01:45:07.319Z,89.20
2017-09-28T01:47:34.766Z,88.60
2017-09-28T01:50:02.223Z,88.80
2017-09-28T01:52:29.672Z,89.00
2017-09-28T01:54:57.133Z,89.00
2017-09-28T01:57:24.590Z,89.10
2017-09-28T01:59:52.043Z,89.20
2017-09-28T02:02:19.500Z,89.10
2017-09-28T02:04:46.958Z,89.10
2017-09-28T02:07:14.417Z,89.20
2017-09-28T02:09:41.875Z,89.20
2017-09-28T02:12:09.331Z,89.20
2017-09-28T02:14:36.783Z,89.20
2017-09-28T02:17:04.266Z,89.10
2017-09-28T02:19:31.727Z,89.20
2017-09-28T02:21:59.198Z,89.10
2017-09-28T02:24:27.422Z,89.10
2017-09-28T02:26:54.885Z,89.10
2017-09-28T02:29:22.369Z,89.10
2017-09-28T02:31:49.816Z,89.20
2017-09-28T02:34:17.277Z,89.40
2017-09-28T02:36:44.743Z,89.40
2017-09-28T02:39:12.194Z,89.40
2017-09-28T02:41:39.651Z,89.40
2017-09-28T02:44:07.314Z,89.60
2017-09-28T02:46:34.762Z,90.10
2017-09-28T02:49:02.248Z,89.50
2017-09-28T02:51:29.733Z,89.60
2017-09-28T02:53:57.187Z,89.30
2017-09-28T02:56:24.854Z,89.20
2017-09-28T02:58:52.337Z,89.40
2017-09-28T03:01:19.898Z,89.60
2017-09-28T03:03:47.342Z,89.40
2017-09-28T03:06:14.796Z,89.50
2017-09-28T03:08:42.245Z,89.60
2017-09-28T03:11:09.706Z,89.80
2017-09-28T03:13:37.256Z,89.60
2017-09-28T03:16:04.833Z,89.70
2017-09-28T03:18:32.285Z,89.70
2017-09-28T03:20:59.743Z,89.60
2017-09-28T03:23:27.201Z,89.60
2017-09-28T03:25:54.697Z,89.70
2017-09-28T03:28:22.249Z,89.60
2017-09-28T03:30:49.725Z,89.70
2017-09-28T03:33:17.947Z,89.60
2017-09-28T03:35:45.430Z,89.50
2017-09-28T03:38:12.900Z,89.10
2017-09-28T03:40:40.367Z,89.20
2017-09-28T03:43:07.842Z,89.10
2017-09-28T03:45:35.298Z,89.00
2017-09-28T03:48:02.759Z,89.10
2017-09-28T03:50:30.204Z,88.90
2017-09-28T03:52:57.666Z,88.80
2017-09-28T03:55:25.129Z,88.70
2017-09-28T03:57:52.578Z,88.70
2017-09-28T04:00:20.032Z,88.70
2017-09-28T04:02:47.490Z,88.70
2017-09-28T04:05:14.954Z,88.50
2017-09-28T04:07:42.419Z,88.60
2017-09-28T04:10:09.868Z,88.60
2017-09-28T04:12:37.322Z,88.40
2017-09-28T04:15:04.775Z,88.30
2017-09-28T04:17:32.243Z,88.20
2017-09-28T04:19:59.711Z,88.40
2017-09-28T04:22:27.177Z,88.40
2017-09-28T04:24:54.650Z,88.40
2017-09-28T04:27:22.119Z,88.50
2017-09-28T04:29:49.598Z,88.50
2017-09-28T04:32:17.047Z,88.60
2017-09-28T04:34:44.533Z,88.70
2017-09-28T04:37:12.084Z,89.30
2017-09-28T04:39:39.626Z,89.10
2017-09-28T04:42:07.887Z,88.80
2017-09-28T04:44:35.362Z,88.70
2017-09-28T04:47:03.585Z,88.70
2017-09-28T04:49:31.077Z,88.70
2017-09-28T04:51:58.776Z,88.70
2017-09-28T04:54:26.243Z,88.70
2017-09-28T04:56:53.705Z,89.00
2017-09-28T04:59:21.155Z,89.00
2017-09-28T05:01:48.608Z,89.50
2017-09-28T05:04:16.333Z,89.30
2017-09-28T05:06:43.799Z,89.20
2017-09-28T05:09:11.258Z,89.30
2017-09-28T05:11:38.727Z,89.20
2017-09-28T05:14:06.945Z,89.80
2017-09-28T05:16:34.447Z,89.80
2017-09-28T05:19:02.000Z,89.40
2017-09-28T05:21:29.488Z,89.00
2017-09-28T05:23:57.007Z,89.10
2017-09-28T05:26:24.482Z,89.40
2017-09-28T05:28:52.773Z,88.60
2017-09-28T05:31:20.295Z,88.60
2017-09-28T05:33:47.776Z,88.60
2017-09-28T05:36:15.262Z,88.50
2017-09-28T05:38:42.790Z,88.10
2017-09-28T05:41:10.320Z,88.00
2017-09-28T05:43:37.806Z,87.80
2017-09-28T05:46:06.060Z,87.60
2017-09-28T05:48:33.558Z,87.60
2017-09-28T05:51:01.072Z,87.30
2017-09-28T05:53:28.558Z,87.10
2017-09-28T05:55:56.814Z,86.70
2017-09-28T05:58:24.305Z,86.70
2017-09-28T06:00:51.749Z,86.70
2017-09-28T06:03:19.296Z,86.40
2017-09-28T06:05:46.765Z,86.10
2017-09-28T06:08:14.608Z,86.30
2017-09-28T06:10:42.099Z,86.50
2017-09-28T06:13:09.587Z,86.10
2017-09-28T06:15:37.078Z,86.40
2017-09-28T06:18:04.585Z,86.00
2017-09-28T06:20:32.334Z,86.00
2017-09-28T06:22:59.793Z,85.40
2017-09-28T06:25:27.308Z,85.80
2017-09-28T06:27:54.802Z,85.40
2017-09-28T06:30:22.298Z,85.20
2017-09-28T06:32:49.779Z,85.30
2017-09-28T06:35:17.281Z,85.00
2017-09-28T06:37:44.746Z,84.90
2017-09-28T06:40:12.246Z,85.00
2017-09-28T06:42:39.745Z,85.00
2017-09-28T06:45:07.269Z,84.60
2017-09-28T06:47:34.773Z,84.30
2017-09-28T06:50:02.278Z,84.30
2017-09-28T06:52:29.753Z,84.20
2017-09-28T06:54:57.246Z,84.50
2017-09-28T06:57:24.754Z,84.90
2017-09-28T06:59:52.483Z,85.30
2017-09-28T07:02:20.237Z,85.40
2017-09-28T07:04:47.885Z,85.70
2017-09-28T07:07:15.409Z,85.80
2017-09-28T07:09:42.875Z,85.70
2017-09-28T07:12:10.334Z,85.20
2017-09-28T07:14:37.791Z,84.80
2017-09-28T07:17:05.266Z,84.90
2017-09-28T07:19:33.514Z,84.40
2017-09-28T07:22:00.976Z,84.40
2017-09-28T07:24:28.457Z,84.50
2017-09-28T07:26:56.738Z,83.80
2017-09-28T07:29:24.215Z,83.80
2017-09-28T07:31:51.668Z,83.80
2017-09-28T07:34:19.115Z,83.60
2017-09-28T07:36:46.566Z,83.60
2017-09-28T07:39:14.022Z,83.60
2017-09-28T07:41:41.491Z,83.70
2017-09-28T07:44:09.042Z,83.50
2017-09-28T07:46:36.550Z,83.10
2017-09-28T07:49:04.009Z,82.30
2017-09-28T07:51:31.479Z,82.40
2017-09-28T07:53:59.168Z,82.60
2017-09-28T07:56:26.726Z,82.60
2017-09-28T07:58:54.199Z,82.20
2017-09-28T08:01:21.658Z,82.50
2017-09-28T08:03:49.178Z,82.90
2017-09-28T08:06:16.654Z,82.00
2017-09-28T08:08:44.106Z,81.80
2017-09-28T08:11:11.620Z,81.80
2017-09-28T08:13:39.094Z,81.90
2017-09-28T08:16:06.578Z,81.50
2017-09-28T08:18:34.821Z,82.40
2017-09-28T08:21:02.315Z,82.40
2017-09-28T08:23:29.812Z,81.40
2017-09-28T08:25:57.297Z,80.90
2017-09-28T08:28:24.801Z,80.70
2017-09-28T08:30:52.298Z,80.80
2017-09-28T08:33:19.783Z,80.40
2017-09-28T08:35:48.050Z,80.60
2017-09-28T08:38:15.535Z,80.60
2017-09-28T08:40:43.062Z,80.60
2017-09-28T08:43:10.538Z,80.80
2017-09-28T08:45:38.788Z,80.90
2017-09-28T08:48:06.349Z,81.10
2017-09-28T08:50:33.855Z,80.40
2017-09-28T08:53:01.378Z,80.40
2017-09-28T08:55:28.864Z,80.10
2017-09-28T08:57:56.494Z,79.60
2017-09-28T09:00:23.980Z,79.50
2017-09-28T09:02:51.447Z,79.40
2017-09-28T09:05:18.942Z,79.30
2017-09-28T09:07:46.422Z,78.80
2017-09-28T09:10:13.906Z,78.90
2017-09-28T09:12:41.426Z,79.40
2017-09-28T09:15:08.939Z,79.70
2017-09-28T09:17:36.381Z,79.10
2017-09-28T09:20:03.932Z,79.30
2017-09-28T09:22:31.449Z,79.40
2017-09-28T09:24:58.948Z,79.30
2017-09-28T09:27:27.212Z,79.40
2017-09-28T09:29:54.682Z,79.40
2017-09-28T09:32:22.142Z,79.40
2017-09-28T09:34:49.615Z,79.50
2017-09-28T09:37:17.553Z,79.10
2017-09-28T09:39:45.021Z,79.10
2017-09-28T09:42:12.561Z,78.90
2017-09-28T09:44:40.839Z,78.80
2017-09-28T09:47:08.307Z,78.80
2017-09-28T09:49:36.594Z,78.70
2017-09-28T09:52:04.109Z,78.70
2017-09-28T09:54:31.605Z,78.60
2017-09-28T09:56:59.157Z,79.20
2017-09-28T09:59:27.421Z,78.20
2017-09-28T10:01:55.677Z,78.00
2017-09-28T10:04:23.170Z,78.00
2017-09-28T10:06:53.194Z,78.20
2017-09-28T10:09:22.081Z,78.20
2017-09-28T10:11:50.635Z,77.80
2017-09-28T10:14:19.589Z,77.10
2017-09-28T10:16:47.087Z,76.80
2017-09-28T10:19:14.575Z,76.50
2017-09-28T10:21:42.830Z,76.40
2017-09-28T10:24:10.286Z,76.40
2017-09-28T10:26:37.766Z,76.80
2017-09-28T10:29:05.271Z,77.20
2017-09-28T10:31:32.781Z,77.00
2017-09-28T10:34:00.255Z,76.60
2017-09-28T10:36:27.737Z,76.50
2017-09-28T10:38:55.257Z,76.80
2017-09-28T10:41:22.882Z,77.00
2017-09-28T10:43:50.367Z,77.00
2017-09-28T10:46:17.887Z,77.00
2017-09-28T10:48:45.378Z,77.30
2017-09-28T10:51:12.853Z,77.70
2017-09-28T10:53:40.317Z,78.40
2017-09-28T10:56:07.786Z,78.60
2017-09-28T10:58:35.270Z,77.70
2017-09-28T11:01:02.798Z,77.90
2017-09-28T11:03:30.273Z,78.00
2017-09-28T11:05:57.792Z,78.20
2017-09-28T11:08:25.357Z,78.30
2017-09-28T11:10:52.903Z,78.10
2017-09-28T11:13:20.368Z,78.20
2017-09-28T11:15:47.883Z,78.50
2017-09-28T11:18:15.366Z,78.60
2017-09-28T11:20:42.853Z,78.90
2017-09-28T11:23:10.342Z,79.10
2017-09-28T11:25:37.838Z,79.20
2017-09-28T11:28:06.091Z,79.40
2017-09-28T11:30:33.566Z,79.50
2017-09-28T11:33:01.069Z,79.20
2017-09-28T11:35:28.594Z,79.40
2017-09-28T11:37:56.825Z,79.80
2017-09-28T11:40:24.310Z,79.80
2017-09-28T11:42:51.784Z,79.70
2017-09-28T11:45:20.045Z,79.70
2017-09-28T11:47:47.506Z,79.60
2017-09-28T11:50:15.795Z,79.80
2017-09-28T11:52:43.289Z,79.80
2017-09-28T11:55:10.744Z,80.10
2017-09-28T11:57:38.274Z,80.00
2017-09-28T12:00:05.767Z,79.80
2017-09-28T12:02:33.276Z,79.80
2017-09-28T12:05:00.735Z,79.70
2017-09-28T12:07:28.997Z,79.60
2017-09-28T12:09:56.447Z,79.60
2017-09-28T12:12:23.931Z,79.50
2017-09-28T12:14:52.158Z,79.50
2017-09-28T12:17:19.639Z,79.50
2017-09-28T12:19:47.122Z,79.10
2017-09-28T12:22:15.347Z,79.50
2017-09-28T12:24:42.831Z,79.50
2017-09-28T12:27:11.071Z,79.50
2017-09-28T12:29:38.543Z,79.50
2017-09-28T12:32:06.017Z,79.60
2017-09-28T12:34:33.475Z,79.60
2017-09-28T12:37:00.947Z,79.90
2017-09-28T12:39:29.206Z,80.00
2017-09-28T12:41:56.666Z,80.10
2017-09-28T12:44:24.146Z,80.30
2017-09-28T12:46:51.621Z,80.30
2017-09-28T12:49:19.090Z,80.50
2017-09-28T12:51:46.564Z,80.40
2017-09-28T12:54:14.030Z,80.50
2017-09-28T12:56:41.497Z,80.60
2017-09-28T12:59:08.976Z,80.50
2017-09-28T13:01:37.211Z,80.50
2017-09-28T13:04:04.687Z,80.50
2017-09-28T13:06:32.151Z,81.20
2017-09-28T13:08:59.618Z,80.50
2017-09-28T13:11:27.090Z,80.30
2017-09-28T13:13:54.560Z,80.60
2017-09-28T13:16:22.026Z,80.30
2017-09-28T13:18:49.511Z,80.10
2017-09-28T13:21:16.974Z,80.10
2017-09-28T13:23:44.483Z,80.00
2017-09-28T13:26:12.722Z,80.00
2017-09-28T13:28:40.176Z,80.00
2017-09-28T13:31:07.642Z,80.00
2017-09-28T13:33:35.098Z,80.20
2017-09-28T13:36:02.554Z,80.30
2017-09-28T13:38:30.015Z,80.60
2017-09-28T13:40:57.478Z,80.60
2017-09-28T13:43:24.972Z,80.50
2017-09-28T13:45:52.435Z,80.60
2017-09-28T13:48:19.917Z,80.40
2017-09-28T13:50:47.382Z,80.20
2017-09-28T13:53:14.883Z,80.20
2017-09-28T13:55:42.323Z,80.10
2017-09-28T13:58:09.825Z,80.20
2017-09-28T14:00:37.799Z,80.20
2017-09-28T14:03:05.257Z,80.30
2017-09-28T14:05:32.747Z,80.60
2017-09-28T14:08:00.213Z,80.50
2017-09-28T14:10:28.490Z,80.80
2017-09-28T14:12:55.946Z,80.80
2017-09-28T14:15:23.412Z,80.60
2017-09-28T14:17:50.893Z,80.70
2017-09-28T14:20:18.381Z,81.00
2017-09-28T14:22:45.854Z,81.20
2017-09-28T14:25:13.333Z,81.10
2017-09-28T14:27:40.789Z,81.20
2017-09-28T14:30:08.253Z,81.10
2017-09-28T14:32:36.479Z,81.00
2017-09-28T14:35:03.958Z,80.90
2017-09-28T14:37:31.424Z,81.50
2017-09-28T14:39:58.890Z,80.60
2017-09-28T14:42:26.378Z,80.50
2017-09-28T14:44:53.858Z,80.60
2017-09-28T14:47:21.381Z,80.50
2017-09-28T14:49:49.617Z,80.30
2017-09-28T14:52:17.089Z,80.30
2017-09-28T14:54:44.571Z,80.30
2017-09-28T14:57:12.802Z,79.80
2017-09-28T14:59:40.334Z,79.80
2017-09-28T15:02:07.795Z,79.80
2017-09-28T15:04:35.251Z,79.80
2017-09-28T15:07:02.709Z,79.80
2017-09-28T15:09:30.185Z,79.60
2017-09-28T15:11:57.661Z,79.80
2017-09-28T15:14:25.151Z,79.70
2017-09-28T15:16:52.658Z,79.90
2017-09-28T15:19:20.119Z,79.90
2017-09-28T15:21:47.599Z,79.60
2017-09-28T15:24:15.081Z,79.80
2017-09-28T15:26:42.546Z,80.10
2017-09-28T15:29:10.023Z,80.00
2017-09-28T15:31:37.518Z,80.20
2017-09-28T15:34:05.014Z,80.00
2017-09-28T15:36:32.430Z,80.10
2017-09-28T15:38:59.952Z,80.10
2017-09-28T15:41:27.431Z,80.80
2017-09-28T15:43:54.894Z,80.20
2017-09-28T15:46:22.366Z,80.40
2017-09-28T15:48:49.851Z,80.40
2017-09-28T15:51:18.086Z,80.20
2017-09-28T15:53:45.561Z,80.10
2017-09-28T15:56:13.033Z,80.10
2017-09-28T15:58:41.274Z,80.20
2017-09-28T16:01:08.730Z,80.20
2017-09-28T16:03:36.210Z,80.20
2017-09-28T16:06:03.688Z,80.30
2017-09-28T16:08:31.928Z,80.10
2017-09-28T16:10:59.396Z,80.10
2017-09-28T16:13:26.849Z,80.10
2017-09-28T16:15:54.325Z,80.20
2017-09-28T16:18:22.589Z,80.10
2017-09-28T16:20:50.081Z,80.00
2017-09-28T16:23:17.600Z,80.00
2017-09-28T16:25:45.096Z,80.00
2017-09-28T16:28:12.626Z,79.80
2017-09-28T16:33:07.915Z,80.20
2017-09-28T16:35:35.402Z,80.30
2017-09-28T16:38:08.217Z,80.40
2017-09-28T16:40:35.973Z,80.40
2017-09-28T16:43:03.608Z,80.40
2017-09-28T16:45:31.069Z,80.50
2017-09-28T16:47:58.563Z,80.70
2017-09-28T16:50:26.065Z,81.00
2017-09-28T16:52:53.547Z,81.10
2017-09-28T16:55:22.131Z,81.30
2017-09-28T16:57:49.689Z,81.20
2017-09-28T17:00:17.175Z,81.50
2017-09-28T17:02:44.677Z,81.50
2017-09-28T17:05:12.184Z,81.70
2017-09-28T17:07:39.734Z,81.80
2017-09-28T17:10:07.868Z,82.00
2017-09-28T17:12:35.326Z,82.10
2017-09-28T17:15:02.813Z,82.30
2017-09-28T17:17:30.286Z,82.50
2017-09-28T17:19:57.774Z,82.80
2017-09-28T17:22:25.231Z,83.00
2017-09-28T17:24:52.708Z,83.10
2017-09-28T17:27:20.188Z,83.50
2017-09-28T17:29:47.682Z,83.70
2017-09-28T17:32:15.135Z,83.90
2017-09-28T17:34:42.589Z,84.10
2017-09-28T17:37:10.074Z,84.20
2017-09-28T17:39:37.551Z,84.30
2017-09-28T17:42:05.014Z,84.50
2017-09-28T17:44:32.495Z,84.80
2017-09-28T17:47:00.830Z,85.20
2017-09-28T17:49:28.531Z,85.20
2017-09-28T17:51:56.018Z,85.30
2017-09-28T17:54:23.563Z,85.40
2017-09-28T17:56:51.077Z,85.50
2017-09-28T17:59:18.521Z,85.60
2017-09-28T18:01:46.019Z,85.60
2017-09-28T18:04:13.489Z,85.70
2017-09-28T18:06:41.078Z,85.90
2017-09-28T18:09:08.559Z,85.80
2017-09-28T18:11:36.069Z,86.10
2017-09-28T18:14:03.630Z,86.20
2017-09-28T18:16:31.132Z,86.20
2017-09-28T18:18:58.704Z,86.30
2017-09-28T18:21:26.204Z,86.30
2017-09-28T18:23:53.836Z,86.40
2017-09-28T18:26:21.321Z,86.50
2017-09-28T18:28:48.823Z,86.40
2017-09-28T18:31:16.311Z,86.40
2017-09-28T18:33:44.070Z,86.40
2017-09-28T18:36:11.560Z,86.40
2017-09-28T18:38:39.011Z,86.40
2017-09-28T18:41:07.194Z,86.50
2017-09-28T18:43:34.954Z,86.40
2017-09-28T18:46:03.129Z,86.50
2017-09-28T18:48:30.594Z,86.50
2017-09-28T18:50:58.082Z,86.40
2017-09-28T18:53:25.580Z,86.40
2017-09-28T18:55:53.047Z,86.40
2017-09-28T18:58:20.597Z,86.40
2017-09-28T19:00:48.914Z,86.50
2017-09-28T19:03:16.359Z,86.50
2017-09-28T19:05:43.850Z,86.50
2017-09-28T19:08:11.310Z,86.50
2017-09-28T19:10:38.795Z,86.50
2017-09-28T19:13:06.270Z,86.40
2017-09-28T19:15:33.776Z,86.60
2017-09-28T19:18:01.268Z,86.80
2017-09-28T19:20:28.738Z,86.70
2017-09-28T19:22:56.355Z,86.80
2017-09-28T19:25:23.852Z,86.70
2017-09-28T19:27:52.211Z,86.80
2017-09-28T19:30:19.699Z,86.80
2017-09-28T19:32:47.366Z,86.80
2017-09-28T19:35:14.873Z,86.80
2017-09-28T19:37:42.396Z,86.90
2017-09-28T19:40:09.955Z,86.80
2017-09-28T19:42:37.462Z,86.80
2017-09-28T19:45:04.959Z,86.90
2017-09-28T19:47:32.905Z,86.80
2017-09-28T19:50:01.223Z,86.90
2017-09-28T19:52:28.762Z,86.90
2017-09-28T19:54:56.232Z,86.80
2017-09-28T19:57:23.763Z,86.80
2017-09-28T19:59:51.276Z,86.80
2017-09-28T20:02:18.773Z,86.80
2017-09-28T20:04:46.305Z,86.80
2017-09-28T20:07:13.874Z,86.70
2017-09-28T20:09:41.563Z,86.70
2017-09-28T20:12:09.234Z,86.70
2017-09-28T20:14:36.784Z,86.70
2017-09-28T20:17:05.888Z,86.80
2017-09-28T20:19:33.535Z,86.90
2017-09-28T20:22:01.838Z,87.10
2017-09-28T20:24:29.439Z,87.10
2017-09-28T20:26:56.948Z,87.70
2017-09-28T20:29:24.804Z,87.10
2017-09-28T20:31:52.733Z,87.30
2017-09-28T20:34:20.236Z,87.40
2017-09-28T20:36:47.814Z,87.40
2017-09-28T20:39:15.320Z,87.50
2017-09-28T20:41:42.879Z,87.70
2017-09-28T20:44:10.553Z,87.80
2017-09-28T20:46:38.225Z,87.90
2017-09-28T20:49:05.749Z,87.90
2017-09-28T20:51:33.255Z,88.00
2017-09-28T20:54:00.821Z,88.10
2017-09-28T20:56:28.388Z,88.20
2017-09-28T20:58:55.878Z,88.30
2017-09-28T21:01:23.448Z,88.40
2017-09-28T21:03:51.191Z,88.40
2017-09-28T21:06:18.654Z,88.40
2017-09-28T21:08:46.173Z,88.60
2017-09-28T21:11:14.434Z,88.60
2017-09-28T21:13:41.951Z,88.50
2017-09-28T21:16:09.473Z,88.70
2017-09-28T21:18:37.005Z,88.70
2017-09-28T21:21:04.584Z,88.70
2017-09-28T21:23:32.319Z,88.80
2017-09-28T21:26:00.016Z,88.90
2017-09-28T21:28:27.553Z,89.10
2017-09-28T21:30:56.002Z,89.20
2017-09-28T21:33:24.994Z,89.40
2017-09-28T21:35:53.261Z,89.40
2017-09-28T21:38:20.776Z,89.50
2017-09-28T21:40:48.292Z,89.50
2017-09-28T21:43:15.800Z,89.40
2017-09-28T21:45:43.338Z,89.50
2017-09-28T21:48:10.840Z,89.70
2017-09-28T21:50:38.306Z,89.60
2017-09-28T21:53:05.804Z,89.80
2017-09-28T21:55:33.575Z,89.80
2017-09-28T21:58:01.470Z,89.80
2017-09-28T22:00:28.977Z,89.70
2017-09-28T22:02:56.470Z,89.60
2017-09-28T22:05:23.978Z,89.40
2017-09-28T22:07:51.471Z,89.40
2017-09-28T22:10:18.996Z,89.30
2017-09-28T22:12:46.491Z,89.30
2017-09-28T22:15:13.966Z,89.40
2017-09-28T22:17:41.454Z,89.30
2017-09-28T22:20:08.956Z,89.30
2017-09-28T22:22:36.448Z,89.20
2017-09-28T22:25:03.962Z,89.30
2017-09-28T22:27:31.442Z,89.10
2017-09-28T22:29:58.906Z,89.10
2017-09-28T22:32:26.359Z,89.20
2017-09-28T22:34:53.822Z,89.20
2017-09-28T22:37:21.319Z,89.30
2017-09-28T22:39:48.805Z,89.30
2017-09-28T22:42:16.263Z,89.20
2017-09-28T22:44:44.495Z,89.20
2017-09-28T22:47:12.019Z,89.10
2017-09-28T22:49:39.479Z,89.10
2017-09-28T22:52:06.940Z,89.10
2017-09-28T22:54:34.461Z,89.10
2017-09-28T22:57:01.942Z,89.20
2017-09-28T22:59:29.470Z,89.30
2017-09-28T23:01:56.948Z,89.20
2017-09-28T23:04:24.421Z,89.00
2017-09-28T23:06:51.887Z,89.10
2017-09-28T23:09:19.397Z,89.00
2017-09-28T23:11:46.877Z,89.60
2017-09-28T23:14:15.147Z,89.10
2017-09-28T23:16:42.638Z,89.10
2017-09-28T23:19:10.111Z,89.10
2017-09-28T23:21:37.556Z,89.20
2017-09-28T23:24:05.005Z,89.30
2017-09-28T23:26:32.475Z,89.60
2017-09-28T23:28:59.941Z,89.70
2017-09-28T23:31:27.415Z,89.70
2017-09-28T23:33:54.880Z,89.70
2017-09-28T23:36:22.340Z,89.70
2017-09-28T23:38:49.797Z,89.60
2017-09-28T23:41:17.242Z,89.60
2017-09-28T23:43:44.703Z,89.80
2017-09-28T23:46:12.163Z,89.90
2017-09-28T23:48:39.615Z,90.00
2017-09-28T23:51:07.067Z,89.90
2017-09-28T23:53:34.521Z,90.00
2017-09-28T23:56:01.978Z,90.00
2017-09-28T23:58:29.450Z,90.00
